Main page
METAR-TAF:

METAR-TAF

Airports :

Gökçeada Airport

Gökçeada, Turkey

latitude: 40-12-04N, longitude: 25-52-56E, elevation: 22 m

Current weather observation

The report was made 2 hours and 16 minutes ago, at 13:50 UTC
Wind 23 kt from the South/Southeast
Temperature 16°C
Humidity 77%
Pressure 1006 hPa
Visibility 10 km or more
Scattered clouds at a height of 2000 ft
Broken clouds at a height of 9000 ft

METAR: LTFK 261350Z 16023KT 9999 SCT020 BKN090 16/12 Q1006

Time: 19:06 (16:06 UTC)

Forecast

The report was made 2 hours and 26 minutes ago, at 13:40 UTC
Forecast valid from 26 at 15 UTC to 26 at 24 UTC
Wind 27 kt from the South/Southwest with gusts up to 42 kt
Visibility 10 km or more
Few clouds at a height of 3500 ft
Broken clouds at a height of 20000 ft

TAF: LTFK 261340Z 2615/2624 20027G42KT 9999 FEW035 BKN200

Weather observations and forecasts of more than 4000 airports (METAR and TAF reports).

The available stations are represented by yellow and red dots on the map.

Hover mouse over dot to see the name of the station.

Then click to see weather observations and forecasts.

To change the map : click on the green buttons with a black cross to zoom in, on the green button with a dash to zoom out, or on the green arrows for adjacent maps.


METAR-TAF: